Portada
METAR-TAF:

METAR-TAF

Aeroports :

Najaf, Iraq

latitud: 31-59-23N, longitud: 44-24-15E, altitud: 31 m

Observació

L'informe es va fer fa 17 minuts, a les 11:00 UTC
Vent calma
Temperatura 33°C
Humitat 34%
Pressió 1003 hPa
Visibilitat: 8000 m

METAR: ORNI 091100Z 00000KT 8000 NSC 33/15 Q1003

Hora: 14:17 (11:17 UTC)

Pronòstic

L'informe es va fer fa 7 hores i 17 minuts, a les 04:00 UTC
Pronòstic vàlid del 09 a les 06 UTC al 10 a les 06 UTC
Vent 3 kt amb direcció variable
Visibilitat: 6000 m
Evolucionant progressivament
l' 09 a les 15 UTC al 09 a les 17 UTC
Vent 8 kt del Nord/Nord-Oest
Visibilitat 10 km o més
sense núvols per sota de 1500 mi sense presència de cumulonimbus.

TAF: ORNI 090400Z 0906/1006 VRB03KT 6000 NSC BECMG 0915/0917 34008KT CAVOK

Observacions i pronòstics meteorològics de més de 4000 aeroports (METAR i TAF).

Les estacions disponibles són els punts grocs i vermells al mapa.

Posi el ratolí al punt desitjat per veure el nom de l'estació.

Feu clic per veure les observacions i els pronòstics meteorològics.

Per canviar el mapa: feu clic els botons verds amb una creu de color negre per apropar; al botó verd amb un guió per allunyar la imatge; o en les fletxes verdes per a mapes adjacents.


METAR-TAF: